»·PEaware :: N153MS KOTH-KOXR

N153MS :: KOTH-KOXR

FLIGHT INFORMATION

Flight Status: Arrived
Operator: Privately registered:
United States
More flights under this callsign
Pilot: Shane N. (25833)
Aircraft: MOONEY M-20K/M ENCORE BRAVO
(M20T)
More flights by this aircraft type
Origin: KOTH North Bend Mun
United States
Destination: KOXR Oxnard
United States
More flights between these airports :: More routes between these airports
Route: +OTH6 DEROY OED J126 SAC MOD AVE
File this flight plan on PilotEdge
Remarks:
Altitude:
(Current/Filed)
25,000ft
Speed:
(Current/Filed)
180kts
Departed: 20-Oct-19 04:32 PM
Arrived: 20-Oct-19 07:11 PM
Distance/Time
Traveled:
601nm/2:39
Distance/Time
To Go:
Arrived

Flight Plot

Page will automatically refresh every two minutes.

Flight plan parsing failed; only flown route is shown


Map Options




Map Legend


Flown Route
Filed Route
Departure Airport
Arrival Airport
Navaid (VOR, NDB)
Fix

Horizontal Profiles

Position Reports

Time Latitude Longitude Heading Altitude Ground
Speed
20-Oct-19 16:08 43.408099 -124.239216 359 15ft 0kts
20-Oct-19 16:09 43.408099 -124.239216 359 15ft 0kts
20-Oct-19 16:10 43.408099 -124.239216 359 15ft 0kts
20-Oct-19 16:11 43.408099 -124.239216 359 15ft 0kts
20-Oct-19 16:12 43.408099 -124.239216 359 15ft 0kts
20-Oct-19 16:12 43.408099 -124.239216 359 15ft 0kts
20-Oct-19 16:14 43.408099 -124.239216 359 15ft 0kts
20-Oct-19 16:15 43.408099 -124.239216 359 15ft 0kts
20-Oct-19 16:15 43.408099 -124.239216 359 15ft 0kts
20-Oct-19 16:16 43.408099 -124.239216 359 15ft 0kts
20-Oct-19 16:17 43.408099 -124.239216 359 15ft 0kts
20-Oct-19 16:19 43.408099 -124.239216 359 15ft 0kts
20-Oct-19 16:19 43.408099 -124.239216 359 15ft 0kts
20-Oct-19 16:20 43.408099 -124.239216 359 15ft 0kts
20-Oct-19 16:21 43.408099 -124.239216 359 15ft 0kts
20-Oct-19 16:22 43.408099 -124.239216 359 15ft 0kts
20-Oct-19 16:23 43.408099 -124.239216 359 15ft 0kts
20-Oct-19 16:24 43.409730 -124.239591 333 12ft 13kts
20-Oct-19 16:25 43.412276 -124.241613 329 17ft 22kts
20-Oct-19 16:26 43.417108 -124.245565 333 20ft 17kts
20-Oct-19 16:27 43.420534 -124.243312 60 10ft 20kts
20-Oct-19 16:28 43.421998 -124.240589 341 6ft 0kts
20-Oct-19 16:29 43.421998 -124.240589 341 6ft 0kts
20-Oct-19 16:30 43.422423 -124.241806 238 4ft 33kts
20-Oct-19 16:31 43.413958 -124.270859 258 766ft 97kts
20-Oct-19 16:32 43.412823 -124.307674 257 1983ft 92kts
20-Oct-19 16:33 43.412380 -124.343608 283 3099ft 104kts
20-Oct-19 16:34 43.436833 -124.329014 95 4211ft 137kts
20-Oct-19 16:35 43.427654 -124.279263 104 5250ft 141kts
20-Oct-19 16:36 43.421705 -124.224440 102 6194ft 153kts
20-Oct-19 16:37 43.411272 -124.165610 133 7010ft 152kts
20-Oct-19 16:38 43.382315 -124.122806 144 7815ft 154kts
20-Oct-19 16:39 43.351234 -124.080266 144 8708ft 161kts
20-Oct-19 16:40 43.318550 -124.035613 143 9922ft 169kts
20-Oct-19 16:41 43.284142 -123.988673 141 11109ft 178kts
20-Oct-19 16:42 43.248133 -123.939627 139 12291ft 186kts
20-Oct-19 16:43 43.210682 -123.888701 139 13496ft 191kts
20-Oct-19 16:44 43.171987 -123.836193 139 14687ft 197kts
20-Oct-19 16:45 43.131819 -123.781788 138 15872ft 203kts
20-Oct-19 16:46 43.090973 -123.726536 138 17000ft 209kts
20-Oct-19 16:47 43.048941 -123.669762 138 18126ft 215kts
20-Oct-19 16:48 43.005850 -123.611756 137 19262ft 218kts
20-Oct-19 16:49 42.962152 -123.553049 136 20386ft 221kts
20-Oct-19 16:50 42.917497 -123.493182 135 21499ft 224kts
20-Oct-19 16:51 42.873008 -123.433639 134 22531ft 226kts
20-Oct-19 16:52 42.827183 -123.372459 134 23493ft 231kts
20-Oct-19 16:53 42.780542 -123.310328 135 24403ft 235kts
20-Oct-19 16:54 42.733167 -123.247401 135 25194ft 244kts
20-Oct-19 16:55 42.680552 -123.177757 135 25234ft 279kts
20-Oct-19 16:56 42.623684 -123.102615 135 25244ft 288kts
20-Oct-19 16:57 42.565278 -123.025601 135 25245ft 294kts
20-Oct-19 16:58 42.505686 -122.947221 135 25247ft 299kts
20-Oct-19 16:59 42.433004 -122.899768 175 25247ft 291kts
20-Oct-19 17:00 42.353588 -122.875863 176 25250ft 294kts
20-Oct-19 17:01 42.273296 -122.852294 176 25251ft 295kts
20-Oct-19 17:02 42.192846 -122.828745 176 25253ft 296kts
20-Oct-19 17:03 42.112344 -122.805238 176 25254ft 296kts
20-Oct-19 17:04 42.031570 -122.781722 176 25251ft 297kts
20-Oct-19 17:05 41.950748 -122.758243 176 25249ft 299kts
20-Oct-19 17:06 41.869995 -122.734844 176 25235ft 298kts
20-Oct-19 17:07 41.789039 -122.711448 176 25236ft 296kts
20-Oct-19 17:08 41.708545 -122.688250 176 25237ft 295kts
20-Oct-19 17:09 41.628016 -122.665106 176 25239ft 296kts
20-Oct-19 17:10 41.547403 -122.641985 176 25240ft 296kts
20-Oct-19 17:11 41.466839 -122.618947 176 25242ft 296kts
20-Oct-19 17:12 41.386082 -122.595906 176 25243ft 297kts
20-Oct-19 17:13 41.305238 -122.572904 176 25244ft 297kts
20-Oct-19 17:14 41.224301 -122.549927 176 25235ft 298kts
20-Oct-19 17:15 41.142820 -122.526857 176 25208ft 299kts
20-Oct-19 17:16 41.061356 -122.503879 174 25173ft 299kts
20-Oct-19 17:17 40.980681 -122.481147 172 25145ft 294kts
20-Oct-19 17:18 40.901372 -122.458843 172 25138ft 289kts
20-Oct-19 17:19 40.824520 -122.437299 172 25127ft 285kts
20-Oct-19 17:20 40.747017 -122.415625 172 25128ft 284kts
20-Oct-19 17:21 40.669734 -122.394061 172 25129ft 284kts
20-Oct-19 17:22 40.592305 -122.372509 172 25130ft 284kts
20-Oct-19 17:23 40.515042 -122.351056 172 25132ft 284kts
20-Oct-19 17:24 40.437863 -122.329672 173 25127ft 283kts
20-Oct-19 17:25 40.360661 -122.308336 173 25129ft 283kts
20-Oct-19 17:26 40.283801 -122.287146 173 25133ft 283kts
20-Oct-19 17:27 40.206885 -122.265988 173 25137ft 283kts
20-Oct-19 17:28 40.129745 -122.244819 173 25139ft 283kts
20-Oct-19 17:29 40.053393 -122.217034 166 25141ft 286kts
20-Oct-19 17:30 39.977381 -122.184918 166 25141ft 287kts
20-Oct-19 17:31 39.901429 -122.152863 166 25143ft 287kts
20-Oct-19 17:32 39.826703 -122.121396 166 25132ft 285kts
20-Oct-19 17:33 39.751115 -122.089639 165 25133ft 284kts
20-Oct-19 17:34 39.675800 -122.058070 165 25134ft 284kts
20-Oct-19 17:35 39.600302 -122.026497 166 25135ft 285kts
20-Oct-19 17:36 39.525017 -121.995084 166 25136ft 285kts
20-Oct-19 17:37 39.449353 -121.963589 166 25137ft 285kts
20-Oct-19 17:38 39.373802 -121.932213 165 25139ft 286kts
20-Oct-19 17:39 39.298067 -121.900828 165 25137ft 286kts
20-Oct-19 17:40 39.222241 -121.869479 165 25133ft 286kts
20-Oct-19 17:41 39.146347 -121.838173 166 25133ft 287kts
20-Oct-19 17:42 39.070618 -121.807005 165 25134ft 287kts
20-Oct-19 17:43 38.994583 -121.775790 165 25133ft 287kts
20-Oct-19 17:44 38.918949 -121.744801 165 25128ft 284kts
20-Oct-19 17:45 38.845725 -121.714866 164 25117ft 279kts
20-Oct-19 17:46 38.772331 -121.684922 164 25117ft 276kts
20-Oct-19 17:47 38.698966 -121.655056 165 25120ft 275kts
20-Oct-19 17:48 38.626157 -121.625483 164 25121ft 275kts
20-Oct-19 17:49 38.553184 -121.595908 164 25120ft 276kts
20-Oct-19 17:50 38.479919 -121.566276 164 25121ft 276kts
20-Oct-19 17:51 38.409887 -121.526523 150 25122ft 278kts
20-Oct-19 17:52 38.342533 -121.477207 150 25123ft 279kts
20-Oct-19 17:53 38.275341 -121.427916 150 25123ft 279kts
20-Oct-19 17:54 38.208130 -121.378710 150 25121ft 279kts
20-Oct-19 17:55 38.141516 -121.330046 151 25113ft 279kts
20-Oct-19 17:56 38.073934 -121.280782 151 25112ft 279kts
20-Oct-19 17:57 38.006742 -121.231906 151 25113ft 279kts
20-Oct-19 17:58 37.939509 -121.183109 150 25114ft 279kts
20-Oct-19 18:00 37.873015 -121.134945 150 25105ft 279kts
20-Oct-19 18:01 37.805337 -121.086022 150 25106ft 280kts
20-Oct-19 18:02 37.737536 -121.037123 149 25106ft 281kts
20-Oct-19 18:03 37.669532 -120.988181 149 25107ft 282kts
20-Oct-19 18:04 37.598786 -120.943523 157 25108ft 284kts
20-Oct-19 18:05 37.525517 -120.906173 158 25109ft 285kts
20-Oct-19 18:06 37.451879 -120.868875 158 25110ft 285kts
20-Oct-19 18:07 37.378149 -120.831614 158 25111ft 285kts
20-Oct-19 18:08 37.304429 -120.794437 158 25112ft 286kts
20-Oct-19 18:09 37.230700 -120.757336 158 25112ft 286kts
20-Oct-19 18:10 37.156763 -120.720201 158 25108ft 286kts
20-Oct-19 18:11 37.082661 -120.683067 158 25106ft 286kts
20-Oct-19 18:12 37.009246 -120.646358 158 25107ft 283kts
20-Oct-19 18:13 36.936709 -120.610162 158 25107ft 279kts
20-Oct-19 18:14 36.865872 -120.574882 158 25101ft 276kts
20-Oct-19 18:15 36.794686 -120.539498 158 25106ft 274kts
20-Oct-19 18:16 36.723852 -120.504361 158 25108ft 274kts
20-Oct-19 18:16 36.664845 -120.475146 158 25110ft 274kts
20-Oct-19 18:18 36.582144 -120.434278 158 25111ft 274kts
20-Oct-19 18:19 36.510971 -120.399187 158 25112ft 274kts
20-Oct-19 18:20 36.440115 -120.364317 158 25112ft 275kts
20-Oct-19 18:20 36.380708 -120.335134 159 25109ft 275kts
20-Oct-19 18:21 36.309791 -120.300364 159 25110ft 274kts
20-Oct-19 18:23 36.227012 -120.259861 159 25110ft 274kts
20-Oct-19 18:23 36.166190 -120.230177 159 24673ft 288kts
20-Oct-19 18:24 36.091025 -120.193553 159 24130ft 291kts
20-Oct-19 18:25 36.017317 -120.157685 159 24113ft 279kts
20-Oct-19 18:26 35.945838 -120.122977 158 24111ft 275kts
20-Oct-19 18:27 35.881988 -120.092038 158 24101ft 273kts
20-Oct-19 18:28 35.816310 -120.060265 158 24100ft 272kts
20-Oct-19 18:29 35.745267 -120.025974 159 23744ft 283kts
20-Oct-19 18:30 35.671725 -119.990573 158 22931ft 284kts
20-Oct-19 18:31 35.599627 -119.952927 155 22123ft 280kts
20-Oct-19 18:32 35.528786 -119.914499 155 21318ft 277kts
20-Oct-19 18:33 35.458684 -119.876537 155 20518ft 274kts
20-Oct-19 18:34 35.389210 -119.838986 155 19722ft 271kts
20-Oct-19 18:35 35.320833 -119.802095 155 18933ft 267kts
20-Oct-19 18:36 35.253620 -119.765908 155 18147ft 262kts
20-Oct-19 18:37 35.187434 -119.730329 154 17334ft 258kts
20-Oct-19 18:38 35.122110 -119.695296 154 16355ft 255kts
20-Oct-19 18:39 35.057367 -119.660620 154 15376ft 252kts
20-Oct-19 18:40 34.994098 -119.626795 154 14404ft 244kts
20-Oct-19 18:41 34.932518 -119.593919 155 13426ft 237kts
20-Oct-19 18:42 34.873481 -119.562455 155 12449ft 232kts
20-Oct-19 18:43 34.814543 -119.531085 156 11436ft 228kts
20-Oct-19 18:44 34.756599 -119.500300 157 10429ft 224kts
20-Oct-19 18:45 34.699621 -119.470076 158 9425ft 220kts
20-Oct-19 18:46 34.659860 -119.423223 107 8991ft 194kts
20-Oct-19 18:47 34.641285 -119.361726 107 8517ft 195kts
20-Oct-19 18:48 34.622392 -119.300534 108 7997ft 192kts
20-Oct-19 18:49 34.604607 -119.243076 107 7989ft 172kts
20-Oct-19 18:50 34.587649 -119.188079 107 7992ft 186kts
20-Oct-19 18:51 34.567733 -119.124044 109 7990ft 211kts
20-Oct-19 18:52 34.546584 -119.056074 109 7990ft 216kts
20-Oct-19 18:53 34.528392 -118.997753 109 7990ft 208kts
20-Oct-19 18:54 34.507953 -118.932282 109 7991ft 204kts
20-Oct-19 18:55 34.481505 -118.872666 146 7673ft 205kts
20-Oct-19 18:56 34.431618 -118.842888 157 6768ft 195kts
20-Oct-19 18:57 34.383002 -118.815896 157 6000ft 183kts
20-Oct-19 18:58 34.338854 -118.791380 158 5991ft 188kts
20-Oct-19 18:59 34.289364 -118.807985 213 5252ft 197kts
20-Oct-19 19:00 34.245992 -118.840200 213 4256ft 177kts
20-Oct-19 19:01 34.207682 -118.869437 228 4183ft 149kts
20-Oct-19 19:02 34.198519 -118.919682 268 3696ft 158kts
20-Oct-19 19:03 34.198859 -118.970984 268 3386ft 159kts
20-Oct-19 19:04 34.199297 -119.024220 268 2883ft 159kts
20-Oct-19 19:05 34.199769 -119.076947 272 2065ft 147kts
20-Oct-19 19:06 34.199991 -119.113504 271 1462ft 80kts
20-Oct-19 19:07 34.200173 -119.140288 270 1042ft 83kts
20-Oct-19 19:08 34.200435 -119.169845 269 561ft 86kts
20-Oct-19 19:09 34.200732 -119.196266 268 130ft 79kts
20-Oct-19 19:10 34.200079 -119.207039 138 39ft 9kts
20-Oct-19 19:11 34.199907 -119.206840 130 39ft 10kts
20-Oct-19 19:12 34.199766 -119.200611 91 44ft 16kts
20-Oct-19 19:13 34.199733 -119.198126 89 46ft 0kts
20-Oct-19 19:14 34.199733 -119.198126 89 46ft 0kts
20-Oct-19 19:15 34.199733 -119.198126 89 46ft 0kts
20-Oct-19 19:16 34.199733 -119.198126 89 46ft 0kts

Navigation Log

Ident Type
Flight plan parsing failed, navigation log unavailable